• Join FlightAware (Why Join?)
  • Login
  • US Flag 
10:48PM EDT


 

Airport Tracker/Info


-or-


 

Live Flight TrackerFlight Track Log ✈ SWA2702 ✈ 16-Apr-2013 ✈ KSNA - KSFO

Flight Track Log - Related Links

Times and Time Zones

All times are in EDT time to prevent confusion due to time zone crossing. See the SWA2702 flight status page for this flight to view local times or setup timezone preferences in your user account.

Time Position Orientation Groundspeed Altitude Reporting Facility
EDT Latitude Longitude Course Direction KTS MPH feet Rate Location/Type
11:10AM 33.6297 -117.8897 337° Northwest 146 168 2,500  Level Los Angeles Center
11:11AM 33.5839 -117.8964 187° South 161 185 4,200 2,340 Climbing Los Angeles Center
11:12AM 33.5236 -117.9294 205° Southwest 228 262 7,400 3,120 Climbing Los Angeles Center
11:13AM 33.4400 -117.9858 209° Southwest 278 320 10,700 3,240 Climbing Los Angeles Center
11:14AM 33.4222 -118.0806 257° West 295 339 14,100 3,480 Climbing Los Angeles Center
11:15AM 33.3974 -118.4320 337° Northwest  Level FlightAware Approximate
11:15AM 33.4072 -118.1814 260° West 304 350 17,900  Level Los Angeles Center
11:16AM 33.3931 -118.2900 261° West 320 368 20,700 2,700 Climbing Los Angeles Center
11:17AM 33.3819 -118.4067 264° West 347 399 23,600 2,580 Climbing Los Angeles Center
11:18AM 33.4456 -118.5031 308° West 374 430 26,100 2,220 Climbing Los Angeles Center
11:19AM 33.5233 -118.5950 315° West 387 445 28,300 2,040 Climbing Los Angeles Center
11:20AM 33.6028 -118.6892 315° West 395 455 30,400 2,160 Climbing Los Angeles Center
11:21AM 33.6847 -118.7806 317° Northwest 398 458 32,800 2,220 Climbing Los Angeles Center
11:22AM 33.7819 -118.8867 318° Northwest 393 452 35,000 1,920 Climbing Los Angeles Center
11:23AM 33.8631 -118.9772 317° Northwest 397 457 36,800 1,440 Climbing Los Angeles Center
11:24AM 33.9433 -119.0664 317° Northwest 393 452 38,000 540 Climbing Los Angeles Center
11:25AM 34.0244 -119.1542 318° Northwest 391 450 38,000  Level Los Angeles Center
11:26AM 34.1047 -119.2436 317° Northwest 392 451 38,000  Level Los Angeles Center
11:27AM 34.1836 -119.3333 317° Northwest 392 451 38,000  Level Los Angeles Center
11:28AM 34.2628 -119.4217 317° Northwest 388 447 38,000  Level Los Angeles Center
11:29AM 34.3583 -119.5275 318° Northwest 388 447 38,000  Level Los Angeles Center
11:30AM 34.4378 -119.6153 318° Northwest 386 444 38,000  Level Los Angeles Center
11:31AM 34.5144 -119.7056 316° Northwest 385 443 38,000  Level Los Angeles Center
11:32AM 34.5931 -119.7942 317° Northwest 385 443 38,000  Level Los Angeles Center
11:33AM 34.6694 -119.8783 318° Northwest 386 444 38,000  Level Los Angeles Center
11:34AM 34.7619 -119.9850 317° Northwest 384 442 38,000  Level Los Angeles Center
11:35AM 34.8403 -120.0728 317° Northwest 382 440 38,000  Level Los Angeles Center
11:36AM 34.9214 -120.1661 317° Northwest 386 444 38,000  Level Los Angeles Center
11:38AM 34.9997 -120.2556 317° Northwest 388 447 38,000  Level Los Angeles Center
11:39AM 35.0778 -120.3450 317° Northwest 387 445 38,000  Level Los Angeles Center
11:40AM 35.1567 -120.4356 317° Northwest 390 449 38,000  Level Los Angeles Center
11:41AM 35.2339 -120.5239 317° Northwest 386 444 38,000  Level Los Angeles Center
11:42AM 35.3103 -120.6128 316° Northwest 384 442 38,000  Level Los Angeles Center
11:43AM 35.4125 -120.7103 322° Northwest 392 451 38,000  Level Los Angeles Center
11:43AM 35.4336 -120.7314 321° Northwest 388 447 38,000  Level Oakland Center
11:44AM 35.5197 -120.8103 323° Northwest 385 443 38,000  Level Oakland Center
11:45AM 35.6053 -120.8892 323° Northwest 382 440 38,000  Level Oakland Center
11:46AM 35.6903 -120.9683 323° Northwest 381 438 38,000  Level Oakland Center
11:47AM 35.7917 -121.0611 323° Northwest 378 435 38,000  Level Oakland Center
11:48AM 35.8767 -121.1397 323° Northwest 382 440 38,000  Level Oakland Center
11:49AM 35.9606 -121.2183 323° Northwest 378 435 38,000  Level Oakland Center
11:50AM 36.0453 -121.2969 323° Northwest 378 435 38,000  Level Oakland Center
11:51AM 36.1297 -121.3778 322° Northwest 384 442 38,000 -60 Level Oakland Center
11:52AM 36.2139 -121.4578 323° Northwest 380 437 37,900 -1,260 Descending Oakland Center
11:53AM 36.2981 -121.5356 323° Northwest 376 433 35,500 -3,180 Descending Oakland Center
11:55AM 36.4500 -121.6833 322° Northwest 371 427 29,600 -3,360 Descending Northern Cal TRACON
11:56AM 36.5167 -121.7500 321° Northwest 360 414 27,100 -2,640 Descending Northern Cal TRACON
11:57AM 36.5833 -121.8167 321° Northwest 371 427 24,600 -2,520 Descending Northern Cal TRACON
11:58AM 36.6667 -121.8833 327° Northwest 391 450 22,100 -2,580 Descending Northern Cal TRACON
11:59AM 36.7333 -121.9500 321° Northwest 311 358 19,800 -2,280 Descending Northern Cal TRACON
12:00PM 36.8000 -121.9833 338° Northwest 301 346 17,800 -2,160 Descending Northern Cal TRACON
12:01PM 36.8833 -122.0000 351° North 288 331 15,500 -2,340 Descending Northern Cal TRACON
12:01PM 36.9394 -122.0147 348° North 285 328 13,700 -1,740 Descending Oakland Center
12:02PM 37.0200 -122.0356 348° North 295 339 12,400 -1,620 Descending Oakland Center
12:03PM 37.1031 -122.0581 348° North 304 350 10,500 -1,200 Descending Oakland Center
12:04PM 37.1778 -122.0761 349° North 276 318 10,000 -900 Descending Oakland Center
12:06PM 37.2456 -122.0947 348° North 255 293 8,700 -1,380 Descending Oakland Center
12:07PM 37.3111 -122.1147 346° North 245 282 7,300 -1,560 Descending Oakland Center
12:08PM 37.3767 -122.1319 348° North 242 278 5,600 -1,140 Descending Oakland Center
12:09PM 37.4411 -122.1475 349° North 240 276 5,000 -540 Descending Oakland Center
12:10PM 37.5044 -122.1669 346° North 213 245 4,600 -1,080 Descending Oakland Center
12:11PM 37.5406 -122.2061 319° Northwest 185 213 2,900 -1,320 Descending Oakland Center
12:12PM 37.5683 -122.2533 307° West 174 200 1,900 -900 Descending Oakland Center
12:13PM 37.5867 -122.3014 296° West 163 188 1,100 -780 Descending Oakland Center
12:14PM 37.6014 -122.3383 297° West 140 161 400 -420 Descending Oakland Center
12:15PM 37.6167 -122.3731 299° West 136 157 300 -120 Descending Oakland Center
12:17PM 37.6167 -122.3667 322° Northwest  Level FlightAware Approximate